Time;durP1;ratioP1;P1;durP2;ratioP2;P2;SDS_P1;SDS_P2;PMS_P1;PMS_P2;Temp;Humidity;BMP_temperature;BMP_pressure;BME280_temperature;BME280_humidity;BME280_pressure;Samples;Min_cycle;Max_cycle;Signal;HPM_P1;HPM_P2
2023/07/21 00:01:05;;;;;;;3.23;2.60;;;16.70;99.90;;;;;;5007018;28;20712;-63
2023/07/21 00:03:32;;;;;;;5.57;3.03;;;16.90;99.90;;;;;;5007427;28;20314;-65
2023/07/21 00:06:01;;;;;;;3.50;2.33;;;17.20;99.90;;;;;;5003711;28;20344;-63
2023/07/21 00:08:29;;;;;;;3.30;2.40;;;17.20;99.90;;;;;;5008715;28;20255;-63
2023/07/21 00:10:57;;;;;;;2.37;2.03;;;17.10;99.90;;;;;;5006743;28;20203;-63
2023/07/21 00:13:28;;;;;;;3.23;2.30;;;16.70;99.90;;;;;;5007234;28;20311;-62
2023/07/21 00:15:56;;;;;;;2.70;2.43;;;16.50;99.90;;;;;;5008733;28;20672;-67
2023/07/21 00:18:23;;;;;;;2.40;2.20;;;16.30;99.90;;;;;;5006121;28;20199;-67
2023/07/21 00:20:50;;;;;;;3.03;2.27;;;16.10;99.90;;;;;;5002641;28;20897;-67
2023/07/21 00:23:19;;;;;;;2.60;2.40;;;16.40;99.90;;;;;;5002888;28;20228;-66
2023/07/21 00:25:47;;;;;;;2.27;2.07;;;16.50;99.90;;;;;;5006424;28;20217;-61
2023/07/21 00:28:14;;;;;;;3.67;1.98;;;16.70;99.90;;;;;;5005138;28;20201;-62
2023/07/21 00:30:41;;;;;;;5.70;2.30;;;16.70;99.90;;;;;;5006578;28;20228;-60
2023/07/21 00:33:08;;;;;;;2.83;2.30;;;16.60;99.90;;;;;;5007027;28;20764;-60
2023/07/21 00:35:35;;;;;;;4.03;2.30;;;16.30;99.90;;;;;;4987699;28;20219;-60
2023/07/21 00:38:03;;;;;;;3.20;2.50;;;16.20;99.90;;;;;;5009515;28;20196;-63
2023/07/21 00:40:35;;;;;;;2.90;2.70;;;16.10;99.90;;;;;;5012150;28;20728;-64
2023/07/21 00:43:03;;;;;;;2.70;2.47;;;16.20;99.90;;;;;;5006513;28;20197;-64
2023/07/21 00:45:37;;;;;;;3.10;2.50;;;16.00;99.90;;;;;;5007349;28;20271;-64
2023/07/21 00:48:07;;;;;;;3.33;2.70;;;15.90;99.90;;;;;;5004786;28;20190;-64
2023/07/21 00:50:50;;;;;;;3.03;2.70;;;16.10;99.90;;;;;;5004569;28;20188;-63
2023/07/21 00:53:19;;;;;;;3.70;2.77;;;16.00;99.90;;;;;;5005571;28;20201;-60
2023/07/21 00:55:47;;;;;;;4.77;2.73;;;16.00;99.90;;;;;;5005960;28;20190;-61
2023/07/21 00:58:16;;;;;;;3.80;3.00;;;16.00;99.90;;;;;;5011261;28;20314;-61
2023/07/21 01:00:43;;;;;;;3.23;2.93;;;16.00;99.90;;;;;;5010458;28;20197;-61
2023/07/21 01:03:12;;;;;;;3.40;3.00;;;15.90;99.90;;;;;;5002830;28;20687;-61
2023/07/21 01:05:45;;;;;;;3.33;2.97;;;16.00;99.90;;;;;;5003534;28;20283;-61
2023/07/21 01:08:13;;;;;;;3.03;2.60;;;16.10;99.90;;;;;;4968056;28;20599;-60
2023/07/21 01:10:42;;;;;;;4.57;3.40;;;16.20;99.90;;;;;;5004728;28;20213;-61
2023/07/21 01:13:11;;;;;;;3.17;2.87;;;16.40;99.90;;;;;;4990820;28;20196;-61
2023/07/21 01:15:48;;;;;;;3.57;2.57;;;16.50;99.90;;;;;;5009415;28;20193;-60
2023/07/21 01:18:16;;;;;;;9.17;2.80;;;16.60;99.90;;;;;;4988000;28;20271;-62
2023/07/21 01:20:45;;;;;;;3.07;2.73;;;16.70;99.90;;;;;;5007096;28;20193;-61
2023/07/21 01:23:17;;;;;;;3.83;2.60;;;16.70;99.90;;;;;;5005999;28;20193;-61
2023/07/21 01:25:45;;;;;;;2.47;2.27;;;16.60;99.90;;;;;;5006422;28;20263;-61
2023/07/21 01:28:14;;;;;;;4.03;2.72;;;16.70;99.90;;;;;;5005858;28;20569;-61
2023/07/21 01:30:45;;;;;;;3.10;2.80;;;16.70;99.90;;;;;;5003791;28;20239;-60
2023/07/21 01:33:14;;;;;;;3.00;2.25;;;16.80;99.90;;;;;;5003158;28;20229;-61
2023/07/21 01:35:42;;;;;;;3.28;2.80;;;16.80;99.90;;;;;;4994508;28;20696;-62
2023/07/21 01:38:12;;;;;;;4.25;3.33;;;16.80;99.90;;;;;;5005177;28;20573;-59
2023/07/21 01:40:40;;;;;;;3.47;2.53;;;16.80;99.90;;;;;;5002809;28;23082;-59
2023/07/21 01:43:07;;;;;;;3.90;2.63;;;16.70;99.90;;;;;;5008765;28;20593;-59
2023/07/21 01:45:35;;;;;;;3.67;2.80;;;16.20;99.90;;;;;;5003935;28;20747;-59
2023/07/21 01:48:02;;;;;;;3.90;3.20;;;15.70;99.90;;;;;;5002670;28;20236;-61
2023/07/21 01:50:29;;;;;;;3.90;3.50;;;15.20;99.90;;;;;;5005218;28;20609;-62
2023/07/21 01:53:01;;;;;;;4.70;3.40;;;15.00;99.90;;;;;;5006117;28;20207;-64
2023/07/21 01:55:39;;;;;;;4.03;3.10;;;14.90;99.90;;;;;;5003741;28;20201;-61
2023/07/21 01:58:08;;;;;;;5.47;4.17;;;15.00;99.90;;;;;;5006659;28;20200;-62
2023/07/21 02:04:36;;;;;;;5.00;3.30;;;15.30;99.90;;;;;;5003180;28;20219;-69
2023/07/21 02:07:03;;;;;;;4.90;3.63;;;15.10;99.90;;;;;;5008268;28;20193;-62
2023/07/21 02:09:30;;;;;;;6.17;4.40;;;15.20;99.90;;;;;;5003613;28;20243;-62
2023/07/21 02:11:58;;;;;;;4.43;4.03;;;15.40;99.90;;;;;;4991583;28;20734;-60
2023/07/21 02:14:40;;;;;;;4.53;4.10;;;15.50;99.90;;;;;;5002668;28;20243;-61
2023/07/21 02:17:07;;;;;;;4.20;3.80;;;15.30;99.90;;;;;;5004494;28;20629;-62
2023/07/21 02:19:34;;;;;;;4.77;4.07;;;15.10;99.90;;;;;;5004364;28;20217;-61
2023/07/21 02:22:01;;;;;;;5.87;4.53;;;15.00;99.90;;;;;;4985925;28;20205;-62
2023/07/21 02:24:30;;;;;;;5.67;4.20;;;15.10;99.90;;;;;;4986912;28;20192;-60
2023/07/21 02:26:59;;;;;;;5.90;4.03;;;15.20;99.90;;;;;;5005169;28;20653;-60
2023/07/21 02:29:28;;;;;;;4.97;4.33;;;15.40;99.90;;;;;;4997916;28;20771;-60
2023/07/21 02:31:56;;;;;;;5.33;4.77;;;15.20;99.90;;;;;;4989166;28;20355;-60
2023/07/21 02:34:23;;;;;;;5.77;4.00;;;15.30;99.90;;;;;;4999024;28;20324;-62
2023/07/21 02:36:50;;;;;;;4.60;4.17;;;15.40;99.90;;;;;;5006215;28;20795;-61
2023/07/21 02:39:17;;;;;;;5.70;4.33;;;15.30;99.90;;;;;;5006588;28;20200;-61
2023/07/21 02:41:44;;;;;;;5.70;4.30;;;15.30;99.90;;;;;;5006809;28;20691;-62
2023/07/21 02:44:11;;;;;;;8.93;5.20;;;15.30;99.90;;;;;;5005062;28;20263;-62
2023/07/21 02:46:39;;;;;;;8.90;4.70;;;15.40;99.90;;;;;;5005107;28;20217;-61
2023/07/21 02:49:06;;;;;;;4.00;3.60;;;15.50;99.90;;;;;;5005767;28;20188;-59
2023/07/21 02:51:33;;;;;;;5.60;3.73;;;15.70;99.90;;;;;;5006861;28;20187;-60
2023/07/21 02:54:00;;;;;;;7.50;4.30;;;15.80;99.90;;;;;;5006101;28;20292;-60
2023/07/21 02:56:27;;;;;;;3.40;2.83;;;15.80;99.90;;;;;;5005027;28;20818;-61
2023/07/21 02:59:09;;;;;;;3.40;3.10;;;15.90;99.90;;;;;;5010575;28;20201;-60
2023/07/21 03:01:37;;;;;;;6.73;3.90;;;16.00;99.90;;;;;;5008037;28;20211;-60
2023/07/21 03:04:05;;;;;;;4.00;3.60;;;15.90;99.90;;;;;;5008219;28;20225;-62
2023/07/21 03:06:41;;;;;;;4.33;3.63;;;15.80;99.90;;;;;;5009554;28;20302;-62
2023/07/21 03:09:08;;;;;;;6.00;4.03;;;15.80;99.90;;;;;;5009200;28;20653;-62
2023/07/21 03:11:35;;;;;;;5.43;4.50;;;15.70;99.90;;;;;;5010177;28;20271;-62
2023/07/21 03:14:14;;;;;;;9.10;4.73;;;15.60;99.90;;;;;;4988471;28;20209;-63
2023/07/21 03:16:41;;;;;;;4.60;4.03;;;15.50;99.90;;;;;;4988117;28;20201;-61
2023/07/21 03:19:10;;;;;;;4.60;3.87;;;15.60;99.90;;;;;;5001828;28;20232;-62
2023/07/21 03:21:39;;;;;;;5.40;4.37;;;15.60;99.90;;;;;;5004117;28;20207;-62
2023/07/21 03:24:07;;;;;;;4.73;4.23;;;15.50;99.90;;;;;;5002692;28;20203;-63
2023/07/21 03:26:34;;;;;;;5.83;4.83;;;15.50;99.90;;;;;;5003203;28;20319;-60
2023/07/21 03:29:02;;;;;;;6.37;4.50;;;15.50;99.90;;;;;;5003839;28;20205;-61
2023/07/21 03:31:29;;;;;;;4.93;4.27;;;15.60;99.90;;;;;;5002885;28;20193;-60
2023/07/21 03:34:00;;;;;;;6.63;3.77;;;15.60;99.90;;;;;;5012409;28;20623;-59
2023/07/21 03:36:30;;;;;;;5.57;4.53;;;15.60;99.90;;;;;;5024488;28;20251;-61
2023/07/21 03:38:58;;;;;;;5.73;4.33;;;15.40;99.90;;;;;;5005360;28;20745;-61
2023/07/21 03:41:25;;;;;;;4.83;4.07;;;15.50;99.90;;;;;;5011606;28;20260;-61
2023/07/21 03:43:52;;;;;;;9.50;4.90;;;15.50;99.90;;;;;;5010102;28;20199;-61
2023/07/21 03:46:20;;;;;;;6.03;4.53;;;15.60;99.90;;;;;;4994196;28;20311;-60
2023/07/21 03:49:05;;;;;;;6.53;4.67;;;15.60;99.90;;;;;;5005281;28;20250;-61
2023/07/21 03:51:35;;;;;;;5.10;4.10;;;15.30;99.90;;;;;;5007189;28;20192;-60
2023/07/21 03:54:02;;;;;;;9.47;4.60;;;15.00;99.90;;;;;;5006934;28;20193;-60
2023/07/21 03:56:30;;;;;;;9.57;4.47;;;14.60;99.90;;;;;;5010707;28;20212;-59
2023/07/21 03:58:58;;;;;;;5.57;5.00;;;14.70;99.90;;;;;;5012980;28;20839;-59
2023/07/21 04:01:27;;;;;;;7.93;5.03;;;14.90;99.90;;;;;;4996563;28;20817;-59
2023/07/21 04:03:54;;;;;;;6.57;5.20;;;15.00;99.90;;;;;;5007344;28;20647;-63
2023/07/21 04:06:24;;;;;;;10.53;7.57;;;15.20;99.90;;;;;;5009055;28;20307;-66
2023/07/21 04:08:53;;;;;;;8.90;6.60;;;15.30;99.90;;;;;;5004173;28;20538;-60
2023/07/21 04:11:21;;;;;;;5.73;4.90;;;15.50;99.90;;;;;;5009386;28;20197;-61
2023/07/21 04:13:48;;;;;;;6.87;5.13;;;15.60;99.90;;;;;;5008996;28;20518;-61
2023/07/21 04:16:18;;;;;;;4.77;4.30;;;15.70;99.90;;;;;;5008748;28;20277;-63
2023/07/21 04:18:45;;;;;;;5.40;4.27;;;15.70;99.90;;;;;;5004728;28;20221;-60
2023/07/21 04:21:12;;;;;;;6.20;4.20;;;15.70;99.90;;;;;;5005864;28;20197;-60
2023/07/21 04:23:39;;;;;;;7.10;4.63;;;15.70;99.90;;;;;;5006144;28;20196;-59
2023/07/21 04:26:07;;;;;;;7.03;5.27;;;15.40;99.90;;;;;;5001840;28;20735;-59
2023/07/21 04:28:34;;;;;;;5.13;4.63;;;15.40;99.90;;;;;;5004442;28;20696;-62
2023/07/21 04:31:01;;;;;;;6.57;4.40;;;15.40;99.90;;;;;;5008483;28;20205;-59
2023/07/21 04:33:36;;;;;;;5.93;4.87;;;15.30;99.90;;;;;;4988071;28;20236;-59
2023/07/21 04:36:03;;;;;;;6.30;4.67;;;15.00;99.90;;;;;;5004389;28;20731;-59
2023/07/21 04:38:31;;;;;;;6.37;4.40;;;14.60;99.90;;;;;;5006312;28;20768;-60
2023/07/21 04:41:06;;;;;;;5.43;4.53;;;14.50;99.90;;;;;;5005715;28;20211;-58
2023/07/21 04:43:34;;;;;;;7.93;5.20;;;14.50;99.90;;;;;;5004919;28;20197;-59
2023/07/21 04:46:01;;;;;;;8.30;5.97;;;14.50;99.90;;;;;;5006008;28;20228;-60
2023/07/21 04:48:37;;;;;;;9.30;5.97;;;14.70;99.90;;;;;;4989590;28;20215;-60
2023/07/21 04:51:05;;;;;;;9.70;5.47;;;14.80;99.90;;;;;;5018754;28;20193;-59
2023/07/21 04:53:32;;;;;;;10.53;5.87;;;15.20;99.90;;;;;;5001455;28;20233;-59
2023/07/21 04:55:59;;;;;;;6.93;5.43;;;15.70;99.90;;;;;;5006732;28;20229;-61
2023/07/21 04:58:30;;;;;;;5.77;4.73;;;16.20;99.90;;;;;;4991409;28;20762;-60
2023/07/21 05:00:58;;;;;;;4.90;4.40;;;16.50;99.90;;;;;;4988588;28;20201;-58
2023/07/21 05:03:26;;;;;;;6.20;4.73;;;16.80;99.90;;;;;;5002815;28;20487;-60
2023/07/21 05:05:53;;;;;;;5.22;4.60;;;16.60;99.90;;;;;;4985970;28;20232;-62
2023/07/21 05:08:22;;;;;;;7.68;4.80;;;16.60;99.90;;;;;;5006696;28;20291;-62
2023/07/21 05:10:49;;;;;;;7.53;5.30;;;16.50;99.90;;;;;;5001809;28;20196;-59
2023/07/21 05:13:18;;;;;;;20.23;12.32;;;16.90;99.90;;;;;;4984613;28;20232;-60
2023/07/21 05:15:54;;;;;;;28.88;18.40;;;17.50;99.90;;;;;;5005639;28;20195;-61
2023/07/21 05:18:35;;;;;;;26.50;14.48;;;17.70;99.90;;;;;;5002397;28;20216;-61
2023/07/21 05:21:11;;;;;;;13.45;9.05;;;18.20;99.90;;;;;;4999773;28;20236;-60
2023/07/21 05:23:44;;;;;;;11.63;8.13;;;19.10;99.90;;;;;;5003510;28;20193;-59
2023/07/21 05:26:18;;;;;;;4.32;3.92;;;18.90;99.90;;;;;;5004647;28;20208;-59
2023/07/21 05:28:46;;;;;;;7.00;4.53;;;18.50;99.90;;;;;;5005546;28;20193;-58
2023/07/21 05:31:14;;;;;;;6.35;4.32;;;18.20;99.90;;;;;;4986641;28;20197;-60
2023/07/21 05:33:53;;;;;;;11.93;4.43;;;18.20;99.90;;;;;;5002351;28;20918;-60
2023/07/21 05:36:21;;;;;;;6.53;4.35;;;18.20;99.90;;;;;;5004621;28;20197;-59
2023/07/21 05:38:48;;;;;;;11.88;4.72;;;18.20;99.90;;;;;;5004257;28;20205;-60
2023/07/21 05:41:16;;;;;;;11.57;7.90;;;18.30;99.90;;;;;;5003755;28;20208;-60
2023/07/21 05:43:44;;;;;;;16.20;10.82;;;18.30;99.90;;;;;;5004419;28;20202;-60
2023/07/21 05:46:12;;;;;;;10.25;6.63;;;18.60;99.90;;;;;;5004369;28;20227;-61
2023/07/21 05:49:02;;;;;;;15.80;8.40;;;18.90;99.90;;;;;;5003506;28;20300;-61
2023/07/21 05:51:29;;;;;;;11.10;5.57;;;19.80;99.90;;;;;;5004481;28;20193;-58
2023/07/21 05:54:08;;;;;;;12.98;6.40;;;20.30;99.90;;;;;;5005387;28;20205;-57
2023/07/21 05:56:36;;;;;;;12.50;7.95;;;20.40;99.90;;;;;;5003822;28;20204;-58
2023/07/21 05:59:11;;;;;;;11.65;6.25;;;21.20;99.90;;;;;;4990134;28;20209;-59
2023/07/21 06:01:38;;;;;;;9.13;5.72;;;21.70;99.90;;;;;;5003973;28;20220;-58
2023/07/21 06:04:07;;;;;;;8.70;5.18;;;22.30;99.90;;;;;;4999958;28;20229;-59
2023/07/21 06:06:34;;;;;;;6.18;4.25;;;22.40;99.90;;;;;;5002996;28;20796;-58
2023/07/21 06:09:19;;;;;;;8.57;4.60;;;22.20;99.90;;;;;;5003041;28;20252;-58
2023/07/21 06:11:57;;;;;;;8.35;4.38;;;21.80;99.90;;;;;;5003637;28;20199;-59
2023/07/21 06:14:41;;;;;;;7.68;5.05;;;22.30;99.90;;;;;;5003074;28;20200;-58
2023/07/21 06:17:14;;;;;;;19.55;13.05;;;22.80;99.90;;;;;;5016757;28;20225;-58
2023/07/21 06:19:41;;;;;;;14.88;9.18;;;22.90;99.90;;;;;;4984756;28;20198;-58
2023/07/21 06:22:08;;;;;;;12.73;9.18;;;22.30;99.90;;;;;;5000784;28;20313;-60
2023/07/21 06:24:35;;;;;;;9.50;7.38;;;22.70;99.90;;;;;;5016315;28;20200;-58
2023/07/21 06:27:02;;;;;;;6.50;5.03;;;24.10;99.90;;;;;;5000386;28;20316;-59
2023/07/21 06:29:29;;;;;;;5.00;4.47;;;26.20;99.90;;;;;;5004023;28;20292;-59
2023/07/21 06:31:57;;;;;;;7.55;4.13;;;25.90;99.90;;;;;;4985018;28;20319;-58
2023/07/21 06:34:56;;;;;;;7.07;3.45;;;26.40;99.90;;;;;;4992367;28;20205;-61
2023/07/21 06:37:41;;;;;;;5.32;3.70;;;27.00;99.90;;;;;;5000053;28;20206;-60
2023/07/21 06:40:20;;;;;;;6.22;3.47;;;27.90;99.90;;;;;;5000484;28;20205;-59
2023/07/21 06:43:08;;;;;;;6.50;4.00;;;29.20;99.90;;;;;;5001428;28;20213;-57
2023/07/21 06:45:52;;;;;;;7.05;3.45;;;30.20;99.90;;;;;;5001145;28;20336;-58
2023/07/21 06:48:39;;;;;;;6.05;3.13;;;30.50;99.90;;;;;;5003309;28;20211;-60
2023/07/21 06:51:11;;;;;;;4.07;3.13;;;29.40;99.90;;;;;;5001716;28;20200;-59
2023/07/21 06:53:39;;;;;;;4.28;3.55;;;30.30;99.10;;;;;;5000442;28;20244;-59
2023/07/21 06:56:06;;;;;;;4.47;3.50;;;31.00;98.40;;;;;;5001147;28;20575;-60
2023/07/21 06:58:33;;;;;;;6.80;3.80;;;30.40;96.10;;;;;;5000364;28;20212;-61
2023/07/21 07:01:00;;;;;;;4.30;3.90;;;30.60;96.70;;;;;;4996836;28;20197;-61
2023/07/21 07:03:29;;;;;;;5.50;4.10;;;29.70;95.30;;;;;;5001021;28;20220;-60
2023/07/21 07:05:59;;;;;;;6.43;4.55;;;28.80;95.90;;;;;;4999467;28;20825;-60
2023/07/21 07:08:26;;;;;;;10.00;4.35;;;28.40;95.80;;;;;;5004094;28;20572;-61
2023/07/21 07:10:53;;;;;;;9.18;4.60;;;30.30;95.90;;;;;;5004465;28;20901;-60
2023/07/21 07:13:20;;;;;;;7.28;5.13;;;31.10;99.90;;;;;;5003750;28;20731;-65
2023/07/21 07:15:49;;;;;;;8.40;5.10;;;30.00;92.40;;;;;;5001125;28;20197;-64
2023/07/21 07:18:16;;;;;;;14.25;10.35;;;28.40;90.40;;;;;;5003456;28;20205;-60
2023/07/21 07:20:51;;;;;;;13.90;9.25;;;30.60;94.60;;;;;;5002952;28;20284;-60
2023/07/21 07:23:21;;;;;;;10.77;7.13;;;33.70;99.90;;;;;;4998772;28;20207;-60
2023/07/21 07:25:49;;;;;;;8.82;5.93;;;34.00;87.50;;;;;;5000106;28;20343;-60
2023/07/21 07:28:18;;;;;;;9.68;5.20;;;32.10;79.60;;;;;;5003902;28;20232;-62
2023/07/21 07:30:46;;;;;;;10.15;4.85;;;33.70;84.10;;;;;;4996480;28;20657;-61
2023/07/21 07:33:17;;;;;;;7.07;4.60;;;31.70;71.40;;;;;;5003792;28;20654;-60
2023/07/21 07:35:52;;;;;;;5.03;4.50;;;32.00;80.80;;;;;;4998581;28;20813;-60
2023/07/21 07:38:27;;;;;;;7.72;5.80;;;34.40;80.40;;;;;;5002181;28;20487;-61
2023/07/21 07:40:59;;;;;;;7.60;5.28;;;34.30;72.80;;;;;;5002599;28;20720;-61
2023/07/21 07:43:26;;;;;;;10.95;4.65;;;34.30;68.20;;;;;;5002140;28;20567;-61
2023/07/21 07:45:53;;;;;;;9.23;6.05;;;33.80;63.80;;;;;;5001216;28;20670;-61
2023/07/21 07:48:22;;;;;;;17.38;12.30;;;31.10;63.60;;;;;;5007743;28;20209;-60
2023/07/21 07:50:51;;;;;;;9.85;8.13;;;30.50;70.00;;;;;;5004435;28;20284;-60
2023/07/21 07:53:18;;;;;;;7.50;5.93;;;30.40;66.50;;;;;;5004373;28;20228;-61
2023/07/21 07:55:45;;;;;;;8.90;6.05;;;31.30;72.70;;;;;;5003693;28;20279;-60
2023/07/21 07:58:12;;;;;;;6.13;5.03;;;33.50;71.90;;;;;;5004631;28;20567;-60
2023/07/21 08:00:44;;;;;;;6.97;4.68;;;35.50;67.00;;;;;;5003338;28;20209;-60
2023/07/21 08:03:11;;;;;;;9.60;4.47;;;33.10;60.70;;;;;;5005228;28;20200;-60
2023/07/21 08:05:40;;;;;;;5.07;4.57;;;31.30;59.90;;;;;;5006117;28;20208;-59
2023/07/21 08:08:09;;;;;;;5.10;4.20;;;29.20;62.00;;;;;;5004622;28;20223;-59
2023/07/21 08:10:41;;;;;;;5.65;4.22;;;28.00;64.90;;;;;;5007376;28;20189;-60
2023/07/21 08:13:08;;;;;;;5.07;4.00;;;31.10;69.50;;;;;;5003176;28;20679;-60
2023/07/21 08:15:42;;;;;;;7.00;4.60;;;30.30;57.80;;;;;;5005586;28;20197;-60
2023/07/21 08:18:13;;;;;;;4.75;3.97;;;29.20;57.70;;;;;;5005170;28;20201;-61
2023/07/21 08:20:40;;;;;;;4.70;3.10;;;31.30;64.80;;;;;;4999950;28;20335;-62
2023/07/21 08:23:08;;;;;;;6.50;3.67;;;34.40;63.80;;;;;;5004590;28;20280;-59
2023/07/21 08:25:49;;;;;;;6.03;3.80;;;36.00;58.20;;;;;;5004648;28;20719;-62
2023/07/21 08:28:17;;;;;;;4.65;4.03;;;36.50;57.90;;;;;;5001735;28;20194;-62
2023/07/21 08:30:44;;;;;;;3.28;2.83;;;37.90;53.20;;;;;;5004763;28;20243;-62
2023/07/21 08:33:24;;;;;;;4.28;3.55;;;39.60;52.70;;;;;;5002364;28;20228;-62
2023/07/21 08:35:51;;;;;;;6.90;4.00;;;36.40;42.90;;;;;;5002904;28;20754;-62
2023/07/21 08:38:18;;;;;;;4.13;3.58;;;34.70;45.00;;;;;;5004676;28;20201;-62
2023/07/21 08:40:49;;;;;;;4.65;3.63;;;32.90;49.10;;;;;;5004406;28;20210;-61
2023/07/21 08:43:17;;;;;;;5.75;4.15;;;29.90;50.50;;;;;;5005369;28;20525;-63
2023/07/21 08:45:47;;;;;;;4.85;3.30;;;33.10;51.90;;;;;;5003488;28;20197;-62
2023/07/21 08:48:17;;;;;;;4.32;3.20;;;34.50;51.50;;;;;;5004749;28;20470;-62
2023/07/21 08:50:48;;;;;;;4.72;3.50;;;35.10;45.30;;;;;;5000197;28;20193;-61
2023/07/21 08:53:15;;;;;;;3.10;2.65;;;34.30;67.10;;;;;;5002066;28;20733;-60
2023/07/21 08:55:42;;;;;;;6.40;3.40;;;30.90;45.20;;;;;;4998938;28;20189;-68
2023/07/21 08:58:10;;;;;;;4.53;3.33;;;32.00;48.80;;;;;;4999415;28;20197;-65
2023/07/21 09:00:37;;;;;;;5.93;3.70;;;32.00;47.50;;;;;;4991463;28;20319;-68
2023/07/21 09:03:04;;;;;;;4.00;3.45;;;32.10;47.00;;;;;;4998704;28;20654;-64
2023/07/21 09:05:31;;;;;;;5.00;4.07;;;33.20;46.00;;;;;;4997559;28;20200;-70
2023/07/21 09:07:59;;;;;;;4.15;3.13;;;33.40;46.20;;;;;;5000742;28;20213;-66
2023/07/21 09:10:31;;;;;;;3.80;2.83;;;34.70;44.80;;;;;;4997050;28;20497;-68
2023/07/21 09:13:01;;;;;;;4.57;3.55;;;36.40;44.10;;;;;;5004050;28;20323;-66
2023/07/21 09:15:28;;;;;;;4.78;3.58;;;37.20;39.50;;;;;;5002736;28;20200;-65
2023/07/21 09:17:56;;;;;;;3.95;3.53;;;36.90;39.20;;;;;;4999322;28;20353;-66
2023/07/21 09:20:23;;;;;;;4.00;3.33;;;36.90;35.50;;;;;;4994881;28;20276;-65
2023/07/21 09:22:50;;;;;;;5.15;4.20;;;36.00;37.60;;;;;;5001761;28;20270;-67
2023/07/21 09:25:21;;;;;;;4.72;3.40;;;36.80;35.70;;;;;;5000453;28;20594;-67
2023/07/21 09:27:55;;;;;;;6.53;3.55;;;37.20;35.00;;;;;;5000482;28;20207;-68
2023/07/21 09:30:23;;;;;;;3.60;2.95;;;36.10;31.40;;;;;;4999706;28;20756;-64
2023/07/21 09:32:55;;;;;;;6.32;4.03;;;34.10;32.40;;;;;;4997076;28;20220;-65
2023/07/21 09:35:23;;;;;;;4.60;3.10;;;34.00;34.70;;;;;;4994744;28;20241;-66
2023/07/21 09:37:51;;;;;;;3.40;3.10;;;33.40;31.80;;;;;;4999531;28;20193;-65
2023/07/21 09:40:27;;;;;;;3.17;2.65;;;33.10;29.40;;;;;;5002742;28;20197;-65
2023/07/21 09:42:55;;;;;;;5.80;4.00;;;31.40;30.70;;;;;;5001845;28;20201;-66
2023/07/21 09:45:25;;;;;;;3.95;3.30;;;30.60;34.00;;;;;;4999367;28;20286;-65
2023/07/21 09:47:55;;;;;;;4.07;3.67;;;30.50;33.30;;;;;;5000461;28;20302;-66
2023/07/21 09:50:22;;;;;;;5.35;3.30;;;31.10;35.20;;;;;;5003777;28;20284;-66
2023/07/21 09:52:52;;;;;;;4.25;3.60;;;30.10;32.40;;;;;;5000023;28;20356;-66
2023/07/21 09:55:22;;;;;;;4.65;2.92;;;29.90;34.30;;;;;;5000416;28;20598;-66
2023/07/21 09:57:49;;;;;;;5.40;3.85;;;29.60;34.60;;;;;;4999004;28;20209;-65
2023/07/21 10:00:17;;;;;;;7.57;3.58;;;29.70;36.40;;;;;;4991326;28;20207;-71
2023/07/21 10:02:50;;;;;;;9.55;4.10;;;30.00;36.60;;;;;;4992087;28;20201;-67
2023/07/21 10:05:18;;;;;;;5.72;4.63;;;31.50;36.80;;;;;;4998462;28;20221;-72
2023/07/21 10:07:48;;;;;;;5.78;3.50;;;29.90;30.80;;;;;;4996214;28;20658;-62
2023/07/21 10:10:17;;;;;;;4.40;3.90;;;30.20;32.10;;;;;;5002741;28;20220;-62
2023/07/21 10:12:51;;;;;;;4.28;3.55;;;28.70;33.30;;;;;;5001010;28;20383;-61
2023/07/21 10:15:30;;;;;;;3.55;3.25;;;25.90;34.50;;;;;;5002790;28;20858;-61
2023/07/21 10:18:09;;;;;;;3.60;3.28;;;27.20;39.30;;;;;;5002312;28;20630;-61
2023/07/21 10:20:38;;;;;;;3.60;3.00;;;27.70;38.70;;;;;;4996366;28;20220;-61
2023/07/21 10:23:05;;;;;;;5.15;4.13;;;28.00;37.90;;;;;;4990207;28;20497;-60
2023/07/21 10:25:59;;;;;;;5.60;3.40;;;28.80;39.40;;;;;;4992481;28;20611;-60
2023/07/21 10:28:30;;;;;;;5.75;3.65;;;28.70;37.10;;;;;;4996559;28;20796;-60
2023/07/21 10:31:30;;;;;;;4.43;3.42;;;29.40;38.40;;;;;;4997246;28;20185;-61
2023/07/21 10:34:11;;;;;;;3.25;2.95;;;29.20;38.60;;;;;;4966470;28;20228;-62
2023/07/21 10:36:45;;;;;;;4.60;2.72;;;27.50;37.10;;;;;;5000872;28;20196;-60
2023/07/21 10:39:16;;;;;;;4.13;2.80;;;27.80;38.60;;;;;;4998878;28;20191;-61
2023/07/21 10:41:43;;;;;;;3.08;2.78;;;28.40;38.70;;;;;;4997780;28;20197;-61
2023/07/21 10:44:11;;;;;;;3.05;2.60;;;28.60;36.10;;;;;;5001093;28;20208;-61
2023/07/21 10:46:43;;;;;;;4.30;3.10;;;29.20;37.40;;;;;;4997735;28;20198;-62
2023/07/21 10:49:12;;;;;;;3.10;2.70;;;31.40;36.00;;;;;;4987370;28;20779;-61
2023/07/21 10:51:44;;;;;;;4.30;2.90;;;31.60;29.50;;;;;;4992114;28;20738;-61
2023/07/21 10:54:13;;;;;;;4.60;2.60;;;32.00;33.60;;;;;;4996691;28;20205;-61
2023/07/21 10:56:45;;;;;;;6.15;3.67;;;33.10;33.10;;;;;;4991231;28;20314;-61
2023/07/21 10:59:14;;;;;;;5.38;3.30;;;33.20;28.50;;;;;;4995157;28;20193;-61
2023/07/21 11:01:50;;;;;;;3.53;2.70;;;33.00;50.30;;;;;;5000433;28;20193;-62
2023/07/21 11:04:20;;;;;;;4.55;3.35;;;33.00;30.00;;;;;;4997117;28;20221;-61
2023/07/21 11:06:56;;;;;;;5.50;3.72;;;32.10;30.00;;;;;;4991059;28;20212;-61
2023/07/21 11:09:24;;;;;;;3.08;2.78;;;31.90;30.30;;;;;;4991762;28;20189;-62
2023/07/21 11:11:53;;;;;;;8.90;4.65;;;31.80;28.90;;;;;;4993314;28;20299;-62
2023/07/21 11:14:26;;;;;;;8.80;5.47;;;29.80;29.50;;;;;;4991379;28;20193;-62
2023/07/21 11:16:53;;;;;;;5.00;3.10;;;30.00;31.90;;;;;;4990649;28;20196;-62
2023/07/21 11:19:21;;;;;;;5.80;3.67;;;29.60;29.90;;;;;;4998657;28;20553;-61
2023/07/21 11:21:48;;;;;;;4.97;2.35;;;29.60;31.00;;;;;;5003835;28;20755;-61
2023/07/21 11:24:23;;;;;;;3.08;2.80;;;28.90;29.40;;;;;;5006529;28;20239;-61
2023/07/21 11:26:53;;;;;;;2.28;2.05;;;26.80;29.60;;;;;;5006129;28;20217;-63
2023/07/21 11:29:20;;;;;;;4.82;3.40;;;27.70;31.70;;;;;;5007004;28;20203;-62
2023/07/21 11:31:47;;;;;;;3.40;2.75;;;29.40;32.40;;;;;;4998797;28;20259;-61
2023/07/21 11:34:37;;;;;;;2.38;2.15;;;30.10;33.40;;;;;;5007683;28;20228;-61
2023/07/21 11:37:06;;;;;;;2.95;2.40;;;29.60;30.10;;;;;;5003850;28;20728;-62
2023/07/21 11:39:33;;;;;;;3.67;2.75;;;30.20;31.10;;;;;;5006259;28;20361;-61
2023/07/21 11:42:00;;;;;;;5.07;2.75;;;31.10;32.20;;;;;;5004965;28;20670;-62
2023/07/21 11:44:32;;;;;;;2.22;1.90;;;29.90;27.60;;;;;;5007257;28;20204;-61
2023/07/21 11:47:10;;;;;;;5.00;2.40;;;29.10;28.80;;;;;;5007732;28;20220;-65
2023/07/21 11:49:38;;;;;;;3.67;2.42;;;29.60;29.00;;;;;;5003833;28;20195;-61
2023/07/21 11:52:07;;;;;;;2.55;2.35;;;29.20;31.40;;;;;;5006531;28;20201;-62
2023/07/21 11:54:39;;;;;;;3.05;2.30;;;29.60;29.40;;;;;;5004863;28;20359;-61
2023/07/21 11:57:07;;;;;;;3.13;2.17;;;28.80;29.40;;;;;;5006399;28;20197;-61
2023/07/21 11:59:34;;;;;;;5.32;3.22;;;30.20;30.00;;;;;;5003410;28;20193;-62
2023/07/21 12:02:09;;;;;;;3.63;2.55;;;30.80;30.20;;;;;;5004263;28;20209;-61
2023/07/21 12:04:37;;;;;;;2.33;2.13;;;29.60;26.80;;;;;;5017566;28;20311;-61
2023/07/21 12:07:06;;;;;;;2.40;2.20;;;28.30;27.90;;;;;;5005482;28;20212;-61
2023/07/21 12:09:33;;;;;;;2.97;2.53;;;28.30;29.40;;;;;;5006267;28;20212;-61
2023/07/21 12:11:59;;;;;;;3.13;2.65;;;28.80;29.40;;;;;;5004017;28;20204;-61
2023/07/21 12:14:28;;;;;;;4.88;2.85;;;29.60;30.30;;;;;;5005432;28;20201;-62
2023/07/21 12:16:56;;;;;;;4.25;2.80;;;30.20;31.40;;;;;;5006155;28;20192;-59
2023/07/21 12:19:24;;;;;;;3.85;3.00;;;27.70;28.90;;;;;;5005492;28;20239;-61
2023/07/21 12:21:55;;;;;;;4.40;2.67;;;28.00;27.60;;;;;;5004258;28;20723;-62
2023/07/21 12:24:22;;;;;;;3.53;3.20;;;27.40;28.80;;;;;;5002788;28;20292;-61
2023/07/21 12:26:50;;;;;;;3.58;3.25;;;26.50;30.20;;;;;;4997660;28;20193;-62
2023/07/21 12:29:17;;;;;;;4.07;3.40;;;26.50;31.00;;;;;;5014450;28;20740;-62
2023/07/21 12:32:04;;;;;;;3.55;3.25;;;25.80;30.80;;;;;;5004361;28;20197;-62
2023/07/21 12:34:31;;;;;;;5.50;2.85;;;26.00;31.70;;;;;;5005256;28;20281;-62
2023/07/21 12:36:58;;;;;;;3.85;3.45;;;25.60;31.10;;;;;;5001837;28;20197;-62
2023/07/21 12:39:25;;;;;;;3.60;3.13;;;26.80;33.80;;;;;;5003480;28;20572;-60
2023/07/21 12:41:52;;;;;;;3.47;2.90;;;27.20;34.50;;;;;;5003398;28;20661;-61
2023/07/21 12:44:23;;;;;;;3.10;2.85;;;27.80;34.50;;;;;;5002092;28;20208;-61
2023/07/21 12:46:50;;;;;;;4.28;2.85;;;27.30;34.60;;;;;;4999318;28;20778;-61
2023/07/21 12:49:17;;;;;;;3.70;2.78;;;26.50;35.70;;;;;;5003268;28;20216;-62
2023/07/21 12:51:45;;;;;;;3.22;2.47;;;27.00;36.70;;;;;;5000963;28;20275;-61
2023/07/21 12:54:16;;;;;;;3.40;2.50;;;26.60;35.60;;;;;;4997137;28;20563;-61
2023/07/21 12:56:43;;;;;;;5.82;2.28;;;26.40;36.30;;;;;;4999584;28;20232;-68
2023/07/21 12:59:14;;;;;;;2.72;2.33;;;26.80;36.80;;;;;;5001772;28;20205;-61
2023/07/21 13:01:42;;;;;;;6.20;2.72;;;27.20;37.30;;;;;;5003726;28;20360;-61
2023/07/21 13:04:12;;;;;;;2.55;2.35;;;27.10;38.00;;;;;;5004973;28;20300;-61